To NAV CANADA Home Page Login to a new session Search on AWWS site Feedback and Comments Disclaimer Vers la page française équivalente Tips FAQ What's new on the site To the Forecasts and Observations / NOTAM section To "File a Flight Plan" website Publications and other links Update of the User's profile FIC Telephone Numbers My Weather Data Folder Route Weather Data Regional Weather Data Local Weather Data To the Forecasts and Observations / NOTAM section
Request Generated 05/25/2015 at 03:01:34 UTC . Weather information available at that time is displayed.

METAR/TAF

HAY RIVER/MERLYN CARTER AIRPORT/NT    

METAR CYHY 250200Z VRB02KT 15SM SCT050 BKN090 BKN230 15/05 A2982 RMK
SC3AC2CC1 CI ASOCTD SLP104 DENSITY ALT 700FT=
METAR CYHY 250100Z VRB02KT 15SM SCT050 BKN080 BKN230 13/04 A2984 RMK
CF3AC2CC1 CI ASOCTD SLP112=
METAR CYHY 250000Z 08012KT 15SM FEW050 FEW120 SCT150 14/03 A2984 RMK
SC1AC1AS2 SLP112 DENSITY ALT 600FT=

TAF CYHY 242342Z 2500/2512 07012KT P6SM SCT050 SCT120
FM250500 VRB03KT P6SM FEW060
RMK NXT FCST BY 250600Z=
Your time UTC time
Weather data provided by Environment Canada and NAV CANADA